createdAt,value
2022-11-12T00:00:43.006Z,11.37
2022-11-12T00:03:32.505Z,11.13
2022-11-12T00:06:20.131Z,11.83
2022-11-12T00:09:07.462Z,11.50
2022-11-12T00:11:54.911Z,11.20
2022-11-12T00:14:41.767Z,11.47
2022-11-12T00:17:29.292Z,10.93
2022-11-12T00:20:18.185Z,11.80
2022-11-12T00:23:05.546Z,10.10
2022-11-12T00:26:00.981Z,9.20
2022-11-12T00:28:47.992Z,11.17
2022-11-12T00:31:35.486Z,10.10
2022-11-12T00:34:22.566Z,8.97
2022-11-12T00:37:10.826Z,9.57
2022-11-12T00:39:57.723Z,10.73
2022-11-12T00:42:45.117Z,11.50
2022-11-12T00:45:32.632Z,10.30
2022-11-12T00:48:19.783Z,10.63
2022-11-12T00:51:07.697Z,10.47
2022-11-12T00:53:57.703Z,10.20
2022-11-12T00:56:46.966Z,11.60
2022-11-12T00:59:34.501Z,11.73
2022-11-12T01:02:22.320Z,10.87
2022-11-12T01:05:10.001Z,10.60
2022-11-12T01:07:57.218Z,10.70
2022-11-12T01:10:47.522Z,11.23
2022-11-12T01:13:37.782Z,10.47
2022-11-12T01:16:30.992Z,11.57
2022-11-12T01:19:17.853Z,11.57
2022-11-12T01:22:04.925Z,11.40
2022-11-12T01:24:52.090Z,12.83
2022-11-12T01:27:40.808Z,10.77
2022-11-12T01:30:28.238Z,10.30
2022-11-12T01:33:15.233Z,10.43
2022-11-12T01:36:03.470Z,11.10
2022-11-12T01:38:51.319Z,12.20
2022-11-12T01:41:41.319Z,11.73
2022-11-12T01:44:33.261Z,12.67
2022-11-12T01:47:25.422Z,11.17
2022-11-12T01:50:22.587Z,11.53
2022-11-12T01:53:13.521Z,11.80
2022-11-12T01:56:01.289Z,14.03
2022-11-12T01:58:53.105Z,13.63
2022-11-12T02:01:42.461Z,14.93
2022-11-12T02:04:29.508Z,14.40
2022-11-12T02:07:18.112Z,13.97
2022-11-12T02:10:07.428Z,13.20
2022-11-12T02:13:13.293Z,13.73
2022-11-12T02:16:00.379Z,13.47
2022-11-12T02:18:49.614Z,13.87
2022-11-12T02:21:38.875Z,14.87
2022-11-12T02:24:38.026Z,14.67
2022-11-12T02:27:26.064Z,12.80
2022-11-12T02:30:13.904Z,13.27
2022-11-12T02:33:01.004Z,15.40
2022-11-12T02:35:48.025Z,14.07
2022-11-12T02:38:36.364Z,14.60
2022-11-12T02:41:23.902Z,15.40
2022-11-12T02:44:10.737Z,16.37
2022-11-12T02:46:59.997Z,14.33
2022-11-12T02:49:47.108Z,15.63
2022-11-12T02:52:34.937Z,12.33
2022-11-12T02:55:23.190Z,11.50
2022-11-12T02:58:10.794Z,11.10
2022-11-12T03:00:59.047Z,11.80
2022-11-12T03:03:46.323Z,10.70
2022-11-12T03:06:33.343Z,12.03
2022-11-12T03:09:20.574Z,12.70
2022-11-12T03:12:09.029Z,12.00
2022-11-12T03:14:57.046Z,13.27
2022-11-12T03:17:43.876Z,11.90
2022-11-12T03:20:31.358Z,12.20
2022-11-12T03:23:18.611Z,11.73
2022-11-12T03:26:06.118Z,11.80
2022-11-12T03:28:54.562Z,13.17
2022-11-12T03:31:43.116Z,12.20
2022-11-12T03:34:30.211Z,11.90
2022-11-12T03:37:17.352Z,12.53
2022-11-12T03:40:04.753Z,11.60
2022-11-12T03:42:53.218Z,13.07
2022-11-12T03:45:41.647Z,12.70
2022-11-12T03:48:29.330Z,13.50
2022-11-12T03:51:18.698Z,11.03
2022-11-12T03:54:08.823Z,11.27
2022-11-12T03:56:56.149Z,11.47
2022-11-12T03:59:43.258Z,10.90
2022-11-12T04:02:31.680Z,10.70
2022-11-12T04:05:36.567Z,11.57
2022-11-12T04:08:38.308Z,11.87
2022-11-12T04:11:25.659Z,11.20
2022-11-12T04:14:11.620Z,11.53
2022-11-12T04:17:16.166Z,9.57
2022-11-12T04:20:22.467Z,11.27
2022-11-12T04:23:09.437Z,12.43
2022-11-12T04:26:14.000Z,11.93
2022-11-12T04:29:27.193Z,12.77
2022-11-12T04:32:14.113Z,11.90
2022-11-12T04:35:06.308Z,12.17
2022-11-12T04:37:53.554Z,12.73
2022-11-12T04:41:00.361Z,12.13
2022-11-12T04:44:04.687Z,11.40
2022-11-12T04:46:51.621Z,11.27
2022-11-12T04:49:38.472Z,12.53
2022-11-12T04:52:27.589Z,11.80
2022-11-12T04:55:14.945Z,12.20
2022-11-12T04:58:02.092Z,13.10
2022-11-12T05:00:49.550Z,11.97
2022-11-12T05:03:36.578Z,11.27
2022-11-12T05:06:40.953Z,11.80
2022-11-12T05:09:30.904Z,11.80
2022-11-12T05:12:17.524Z,12.70
2022-11-12T05:15:05.895Z,12.30
2022-11-12T05:17:53.354Z,10.87
2022-11-12T05:20:40.442Z,12.80
2022-11-12T05:23:27.410Z,13.30
2022-11-12T05:26:16.553Z,12.93
2022-11-12T05:29:08.590Z,12.17
2022-11-12T05:31:56.495Z,13.20
2022-11-12T05:34:44.063Z,13.83
2022-11-12T05:37:31.825Z,13.50
2022-11-12T05:40:22.149Z,12.80
2022-11-12T05:43:10.688Z,13.30
2022-11-12T05:45:57.789Z,12.93
2022-11-12T05:48:44.927Z,12.07
2022-11-12T05:51:35.593Z,13.37
2022-11-12T05:54:25.049Z,14.10
2022-11-12T05:57:12.475Z,12.20
2022-11-12T06:00:01.039Z,13.03
2022-11-12T06:02:48.416Z,13.27
2022-11-12T06:05:36.329Z,14.87
2022-11-12T06:08:23.494Z,13.20
2022-11-12T06:11:10.263Z,15.37
2022-11-12T06:13:57.159Z,13.13
2022-11-12T06:16:45.666Z,15.83
2022-11-12T06:19:32.637Z,14.63
2022-11-12T06:22:19.930Z,14.20
2022-11-12T06:25:08.020Z,13.80
2022-11-12T06:27:55.247Z,15.77
2022-11-12T06:30:42.381Z,13.93
2022-11-12T06:33:31.514Z,13.93
2022-11-12T06:36:21.487Z,14.13
2022-11-12T06:39:08.718Z,14.70
2022-11-12T06:41:55.828Z,12.67
2022-11-12T06:44:43.472Z,15.07
2022-11-12T06:47:30.947Z,15.17
2022-11-12T06:50:19.584Z,14.67
2022-11-12T06:53:06.409Z,14.20
2022-11-12T06:55:54.524Z,14.53
2022-11-12T06:58:42.016Z,14.20
2022-11-12T07:01:29.519Z,16.40
2022-11-12T07:04:17.070Z,14.40
2022-11-12T07:07:09.456Z,13.83
2022-11-12T07:09:57.648Z,17.60
2022-11-12T07:12:47.938Z,15.93
2022-11-12T07:15:39.575Z,15.83
2022-11-12T07:18:27.147Z,16.60
2022-11-12T07:21:17.637Z,17.20
2022-11-12T07:24:06.646Z,16.93
2022-11-12T07:26:53.904Z,16.50
2022-11-12T07:29:49.022Z,15.80
2022-11-12T07:32:40.250Z,13.93
2022-11-12T07:35:31.025Z,13.47
2022-11-12T07:38:17.972Z,13.77
2022-11-12T07:41:09.156Z,13.17
2022-11-12T07:43:56.233Z,14.97
2022-11-12T07:46:43.170Z,13.40
2022-11-12T07:49:30.409Z,14.23
2022-11-12T07:52:17.816Z,12.03
2022-11-12T07:55:05.629Z,14.93
2022-11-12T07:57:54.380Z,15.23
2022-11-12T08:00:41.704Z,15.77
2022-11-12T08:03:29.010Z,15.20
2022-11-12T08:06:15.773Z,15.33
2022-11-12T08:09:05.562Z,15.20
2022-11-12T08:11:52.570Z,16.07
2022-11-12T08:14:41.065Z,17.20
2022-11-12T08:17:28.084Z,17.17
2022-11-12T08:20:16.204Z,16.80
2022-11-12T08:23:03.329Z,18.63
2022-11-12T08:25:50.183Z,18.73
2022-11-12T08:28:38.555Z,19.97
2022-11-12T08:31:27.423Z,20.13
2022-11-12T08:34:22.368Z,19.17
2022-11-12T08:37:10.193Z,20.63
2022-11-12T08:39:57.179Z,19.77
2022-11-12T08:42:44.289Z,19.33
2022-11-12T08:45:34.438Z,21.10
2022-11-12T08:48:23.162Z,19.57
2022-11-12T08:51:10.643Z,20.53
2022-11-12T08:53:57.457Z,20.80
2022-11-12T08:56:44.506Z,19.47
2022-11-12T08:59:31.769Z,19.47
2022-11-12T09:02:18.861Z,19.33
2022-11-12T09:05:08.541Z,21.10
2022-11-12T09:07:59.713Z,20.10
2022-11-12T09:10:47.162Z,18.77
2022-11-12T09:13:34.974Z,19.37
2022-11-12T09:16:24.192Z,21.67
2022-11-12T09:19:11.554Z,18.67
2022-11-12T09:22:00.123Z,21.80
2022-11-12T09:24:47.261Z,20.07
2022-11-12T09:27:34.337Z,21.40
2022-11-12T09:30:21.405Z,20.97
2022-11-12T09:33:08.407Z,23.47
2022-11-12T09:35:55.674Z,21.60
2022-11-12T09:38:44.226Z,20.67
2022-11-12T09:41:37.584Z,21.77
2022-11-12T09:44:24.682Z,20.77
2022-11-12T09:47:18.290Z,20.57
2022-11-12T09:50:21.300Z,22.90
2022-11-12T09:53:17.678Z,22.17
2022-11-12T09:56:12.298Z,17.47
2022-11-12T09:58:59.409Z,20.27
2022-11-12T10:02:02.023Z,20.27
2022-11-12T10:05:04.238Z,18.77
2022-11-12T10:08:06.820Z,20.57
2022-11-12T10:11:04.432Z,18.23
2022-11-12T10:14:04.816Z,16.40
2022-11-12T10:17:00.485Z,17.93
2022-11-12T10:20:00.044Z,18.73
2022-11-12T10:23:07.498Z,18.80
2022-11-12T10:25:58.809Z,17.13
2022-11-12T10:28:49.403Z,14.07
2022-11-12T10:31:37.737Z,14.03
2022-11-12T10:34:26.184Z,15.17
2022-11-12T10:37:20.101Z,15.27
2022-11-12T10:40:31.531Z,14.57
2022-11-12T10:43:24.359Z,13.67
2022-11-12T10:46:21.378Z,12.90
2022-11-12T10:49:26.104Z,12.03
2022-11-12T10:52:24.896Z,11.43
2022-11-12T10:55:19.768Z,9.93
2022-11-12T10:58:20.970Z,10.30
2022-11-12T11:01:17.686Z,9.20
2022-11-12T11:04:05.400Z,8.60
2022-11-12T11:07:05.816Z,7.33
2022-11-12T11:09:58.074Z,8.23
2022-11-12T11:12:45.328Z,7.33
2022-11-12T11:15:32.537Z,7.00
2022-11-12T11:18:19.734Z,7.50
2022-11-12T11:21:31.006Z,6.63
2022-11-12T11:24:34.085Z,7.30
2022-11-12T11:27:33.419Z,6.67
2022-11-12T11:30:22.264Z,7.17
2022-11-12T11:33:39.393Z,6.90
2022-11-12T11:36:36.136Z,7.03
2022-11-12T11:39:36.381Z,5.80
2022-11-12T11:42:49.605Z,5.53
2022-11-12T11:46:03.396Z,5.27
2022-11-12T11:49:16.356Z,6.70
2022-11-12T11:52:21.381Z,5.90
2022-11-12T11:55:36.769Z,4.87
2022-11-12T11:58:56.252Z,5.63
2022-11-12T12:02:05.669Z,5.40
2022-11-12T12:04:57.526Z,5.30
2022-11-12T12:07:57.016Z,6.83
2022-11-12T12:11:13.293Z,5.83
2022-11-12T12:14:34.106Z,5.40
2022-11-12T12:17:38.855Z,5.37
2022-11-12T12:20:35.401Z,6.33
2022-11-12T12:23:31.058Z,5.70
2022-11-12T12:26:25.004Z,6.70
2022-11-12T12:29:17.268Z,5.60
2022-11-12T12:32:13.413Z,6.43
2022-11-12T12:35:07.975Z,6.43
2022-11-12T12:38:07.914Z,6.00
2022-11-12T12:41:03.805Z,6.20
2022-11-12T12:43:58.188Z,6.17
2022-11-12T12:46:49.037Z,5.93
2022-11-12T12:49:40.042Z,5.93
2022-11-12T12:52:28.003Z,5.90
2022-11-12T12:55:42.409Z,6.33
2022-11-12T12:58:33.469Z,6.90
2022-11-12T13:01:34.240Z,6.33
2022-11-12T13:04:55.212Z,6.47
2022-11-12T13:07:45.876Z,6.53
2022-11-12T13:10:53.807Z,6.93
2022-11-12T13:13:40.910Z,5.63
2022-11-12T13:16:59.320Z,6.10
2022-11-12T13:20:08.760Z,6.40
2022-11-12T13:22:57.323Z,6.30
2022-11-12T13:25:44.341Z,6.00
2022-11-12T13:28:32.218Z,7.57
2022-11-12T13:31:30.631Z,6.90
2022-11-12T13:34:30.929Z,6.47
2022-11-12T13:37:22.556Z,6.40
2022-11-12T13:40:17.698Z,7.37
2022-11-12T13:43:34.706Z,6.20
2022-11-12T13:46:30.597Z,6.40
2022-11-12T13:49:18.961Z,6.60
2022-11-12T13:52:07.528Z,7.60
2022-11-12T13:55:03.356Z,7.57
2022-11-12T13:57:53.260Z,6.37
2022-11-12T14:00:40.682Z,7.33
2022-11-12T14:03:32.005Z,8.17
2022-11-12T14:06:28.599Z,8.30
2022-11-12T14:09:39.718Z,7.03
2022-11-12T14:12:54.839Z,7.50
2022-11-12T14:16:06.325Z,7.57
2022-11-12T14:19:36.810Z,6.97
2022-11-12T14:22:24.821Z,8.17
2022-11-12T14:25:20.146Z,7.20
2022-11-12T14:28:25.951Z,8.17
2022-11-12T14:31:16.892Z,8.00
2022-11-12T14:34:23.013Z,7.10
2022-11-12T14:37:42.633Z,7.83
2022-11-12T14:40:33.660Z,7.50
2022-11-12T14:43:30.960Z,7.10
2022-11-12T14:46:29.944Z,7.40
2022-11-12T14:49:24.074Z,7.23
2022-11-12T14:52:17.027Z,8.27
2022-11-12T14:55:11.272Z,7.67
2022-11-12T14:57:59.626Z,8.07
2022-11-12T15:00:49.196Z,8.27
2022-11-12T15:03:37.741Z,7.17
2022-11-12T15:06:34.630Z,8.10
2022-11-12T15:09:34.164Z,8.17
2022-11-12T15:12:25.257Z,8.90
2022-11-12T15:15:22.196Z,8.40
2022-11-12T15:18:18.955Z,9.23
2022-11-12T15:21:15.665Z,9.50
2022-11-12T15:24:17.075Z,9.73
2022-11-12T15:27:36.508Z,9.80
2022-11-12T15:30:27.226Z,11.57
2022-11-12T15:33:23.536Z,10.07
2022-11-12T15:36:20.195Z,10.50
2022-11-12T15:39:15.334Z,9.77
2022-11-12T15:42:05.410Z,10.30
2022-11-12T15:44:59.365Z,10.67
2022-11-12T15:47:47.235Z,9.77
2022-11-12T15:50:34.677Z,10.63
2022-11-12T15:53:22.982Z,12.97
2022-11-12T15:56:13.053Z,10.50
2022-11-12T15:58:59.942Z,11.00
2022-11-12T16:01:47.464Z,11.37
2022-11-12T16:04:34.687Z,10.77
2022-11-12T16:07:21.737Z,11.60
2022-11-12T16:10:15.768Z,11.33
2022-11-12T16:13:04.716Z,13.63
2022-11-12T16:15:52.808Z,12.27
2022-11-12T16:18:39.942Z,11.23
2022-11-12T16:21:27.372Z,12.10
2022-11-12T16:24:14.293Z,12.10
2022-11-12T16:27:04.788Z,12.97
2022-11-12T16:29:52.242Z,11.20
2022-11-12T16:32:39.705Z,12.20
2022-11-12T16:35:27.973Z,11.67
2022-11-12T16:38:18.238Z,11.70
2022-11-12T16:41:07.841Z,11.60
2022-11-12T16:43:56.526Z,13.00
2022-11-12T16:46:43.959Z,12.00
2022-11-12T16:49:34.521Z,12.70
2022-11-12T16:52:25.940Z,12.43
2022-11-12T16:55:13.212Z,11.03
2022-11-12T16:58:00.381Z,13.07
2022-11-12T17:00:51.283Z,12.87
2022-11-12T17:03:38.543Z,13.57
2022-11-12T17:06:33.874Z,12.67
2022-11-12T17:09:20.850Z,12.33
2022-11-12T17:12:08.210Z,14.20
2022-11-12T17:14:55.122Z,13.87
2022-11-12T17:17:43.637Z,12.50
2022-11-12T17:20:30.789Z,13.10
2022-11-12T17:23:18.136Z,12.20
2022-11-12T17:26:19.913Z,13.90
2022-11-12T17:29:09.825Z,13.67
2022-11-12T17:31:57.060Z,14.00
2022-11-12T17:34:45.673Z,13.60
2022-11-12T17:37:32.688Z,12.90
2022-11-12T17:40:20.195Z,14.67
2022-11-12T17:43:06.961Z,14.80
2022-11-12T17:45:56.326Z,13.57
2022-11-12T17:48:43.476Z,13.70
2022-11-12T17:51:32.263Z,13.40
2022-11-12T17:54:19.123Z,12.87
2022-11-12T17:57:06.416Z,14.00
2022-11-12T17:59:53.638Z,14.50
2022-11-12T18:02:41.033Z,13.40
2022-11-12T18:05:28.458Z,12.83
2022-11-12T18:08:20.267Z,14.70
2022-11-12T18:11:08.371Z,15.37
2022-11-12T18:13:55.635Z,14.47
2022-11-12T18:16:43.042Z,13.40
2022-11-12T18:19:30.742Z,14.53
2022-11-12T18:22:22.537Z,13.50
2022-11-12T18:25:11.788Z,13.27
2022-11-12T18:27:59.042Z,12.97
2022-11-12T18:30:46.483Z,13.57
2022-11-12T18:33:36.136Z,12.77
2022-11-12T18:36:51.859Z,12.77
2022-11-12T18:39:39.554Z,14.13
2022-11-12T18:42:29.820Z,12.87
2022-11-12T18:45:17.179Z,12.27
2022-11-12T18:48:06.728Z,14.07
2022-11-12T18:50:54.560Z,12.80
2022-11-12T18:53:43.006Z,13.80
2022-11-12T18:56:29.906Z,14.10
2022-11-12T18:59:18.599Z,12.87
2022-11-12T19:02:06.103Z,14.33
2022-11-12T19:05:13.642Z,16.07
2022-11-12T19:08:01.129Z,15.83
2022-11-12T19:10:48.238Z,15.27
2022-11-12T19:13:36.104Z,16.73
2022-11-12T19:16:27.775Z,15.10
2022-11-12T19:19:15.396Z,15.10
2022-11-12T19:22:02.542Z,16.10
2022-11-12T19:24:49.737Z,19.10
2022-11-12T19:27:36.941Z,17.90
2022-11-12T19:30:26.031Z,16.73
2022-11-12T19:33:14.321Z,18.03
2022-11-12T19:36:06.364Z,18.73
2022-11-12T19:38:59.295Z,17.80
2022-11-12T19:41:46.700Z,17.70
2022-11-12T19:44:34.260Z,19.20
2022-11-12T19:47:21.765Z,18.40
2022-11-12T19:50:11.300Z,19.03
2022-11-12T19:52:58.449Z,18.17
2022-11-12T19:55:45.664Z,19.60
2022-11-12T19:58:34.353Z,18.10
2022-11-12T20:01:21.972Z,17.80
2022-11-12T20:04:09.032Z,19.10
2022-11-12T20:06:57.524Z,19.23
2022-11-12T20:09:50.985Z,19.00
2022-11-12T20:12:40.106Z,20.20
2022-11-12T20:15:27.461Z,17.83
2022-11-12T20:18:14.918Z,19.10
2022-11-12T20:21:04.964Z,18.30
2022-11-12T20:23:53.747Z,17.27
2022-11-12T20:26:40.481Z,18.00
2022-11-12T20:29:28.574Z,18.20
2022-11-12T20:32:19.182Z,19.87
2022-11-12T20:35:14.132Z,20.63
2022-11-12T20:38:03.773Z,17.90
2022-11-12T20:41:00.146Z,19.37
2022-11-12T20:43:47.618Z,19.37
2022-11-12T20:46:34.738Z,20.17
2022-11-12T20:49:22.047Z,20.50
2022-11-12T20:52:09.512Z,19.13
2022-11-12T20:54:57.012Z,20.60
2022-11-12T20:57:46.353Z,20.00
2022-11-12T21:00:33.934Z,19.60
2022-11-12T21:03:21.660Z,19.77
2022-11-12T21:06:11.650Z,17.83
2022-11-12T21:09:02.060Z,19.80
2022-11-12T21:11:49.267Z,17.60
2022-11-12T21:14:37.929Z,18.63
2022-11-12T21:17:28.004Z,18.40
2022-11-12T21:20:15.204Z,20.10
2022-11-12T21:23:02.981Z,20.07
2022-11-12T21:25:50.306Z,21.07
2022-11-12T21:28:38.619Z,19.80
2022-11-12T21:31:29.756Z,20.50
2022-11-12T21:34:16.882Z,19.67
2022-11-12T21:37:04.286Z,20.80
2022-11-12T21:39:51.825Z,19.80
2022-11-12T21:42:42.647Z,20.83
2022-11-12T21:45:29.825Z,20.70
2022-11-12T21:48:18.558Z,22.70
2022-11-12T21:51:07.302Z,18.97
2022-11-12T21:53:57.274Z,22.17
2022-11-12T21:56:45.226Z,21.30
2022-11-12T21:59:37.073Z,21.70
2022-11-12T22:02:24.508Z,20.23
2022-11-12T22:05:13.935Z,22.50
2022-11-12T22:08:01.427Z,22.00
2022-11-12T22:10:51.117Z,22.70
2022-11-12T22:13:39.571Z,22.90
2022-11-12T22:16:30.197Z,22.27
2022-11-12T22:19:19.423Z,23.27
2022-11-12T22:22:08.016Z,22.20
2022-11-12T22:24:55.366Z,20.13
2022-11-12T22:27:42.657Z,22.33
2022-11-12T22:30:29.960Z,21.33
2022-11-12T22:33:17.146Z,20.60
2022-11-12T22:36:05.426Z,21.80
2022-11-12T22:38:58.096Z,21.60
2022-11-12T22:41:48.076Z,21.87
2022-11-12T22:44:35.336Z,20.77
2022-11-12T22:47:22.339Z,19.87
2022-11-12T22:50:11.256Z,20.10
2022-11-12T22:52:58.075Z,18.23
2022-11-12T22:55:46.378Z,17.37
2022-11-12T22:58:37.474Z,19.57
2022-11-12T23:01:27.175Z,20.03
2022-11-12T23:04:14.545Z,20.37
2022-11-12T23:07:01.342Z,20.50
2022-11-12T23:09:48.301Z,20.60
2022-11-12T23:12:37.283Z,21.97
2022-11-12T23:15:24.466Z,20.90
2022-11-12T23:18:11.719Z,21.40
2022-11-12T23:21:07.952Z,23.40
2022-11-12T23:23:57.112Z,21.60
2022-11-12T23:26:44.217Z,21.53
2022-11-12T23:29:32.759Z,21.07
2022-11-12T23:32:19.773Z,19.47
2022-11-12T23:35:08.179Z,16.47
2022-11-12T23:37:55.332Z,16.20
2022-11-12T23:40:42.613Z,15.40
2022-11-12T23:43:29.874Z,17.40
2022-11-12T23:46:18.612Z,16.90
2022-11-12T23:49:05.924Z,16.50
2022-11-12T23:51:52.739Z,18.60
2022-11-12T23:54:39.615Z,17.57
2022-11-12T23:57:26.787Z,17.50
